createdAt,value
2023-03-23T15:58:29.176Z,6.97
2023-03-23T16:01:04.757Z,6.57
2023-03-23T16:03:45.872Z,5.97
2023-03-23T16:06:25.388Z,6.77
2023-03-23T16:09:00.788Z,5.53
2023-03-23T16:11:31.315Z,6.30
2023-03-23T16:14:06.736Z,7.40
2023-03-23T16:16:44.690Z,7.23
2023-03-23T16:19:15.010Z,6.33
2023-03-23T16:21:51.755Z,6.10
2023-03-23T16:24:21.166Z,6.73
2023-03-23T16:26:49.753Z,7.47
2023-03-23T16:29:46.837Z,8.13
2023-03-23T16:32:14.321Z,5.37
2023-03-23T16:34:49.835Z,6.23
2023-03-23T16:37:19.775Z,5.70
2023-03-23T16:39:54.734Z,6.87
2023-03-23T16:42:23.080Z,5.17
2023-03-23T16:44:58.732Z,6.97
2023-03-23T16:47:33.783Z,6.87
2023-03-23T16:50:03.771Z,7.53
2023-03-23T16:52:46.412Z,7.37
2023-03-23T16:55:23.704Z,6.03
2023-03-23T16:57:54.149Z,4.13
2023-03-23T17:00:33.769Z,6.27
2023-03-23T17:03:08.844Z,5.40
2023-03-23T17:05:38.864Z,8.80
2023-03-23T17:08:15.756Z,7.07
2023-03-23T17:10:57.786Z,8.57
2023-03-23T17:13:28.007Z,5.63
2023-03-23T17:16:04.734Z,5.50
2023-03-23T17:18:39.779Z,6.20
2023-03-23T17:21:09.133Z,5.63
2023-03-23T17:23:45.787Z,4.70
2023-03-23T17:26:14.435Z,5.20
2023-03-23T17:28:43.050Z,7.73
2023-03-23T17:31:18.041Z,5.63
2023-03-23T17:33:46.859Z,6.03
2023-03-23T17:36:21.802Z,5.67
2023-03-23T17:38:58.801Z,6.97
2023-03-23T17:41:27.605Z,5.60
2023-03-23T17:44:03.762Z,6.17
2023-03-23T17:46:39.022Z,7.90
2023-03-23T17:49:07.844Z,7.83
2023-03-23T17:51:44.543Z,8.30
2023-03-23T17:54:21.117Z,7.77
2023-03-23T17:56:50.200Z,7.97
2023-03-23T17:59:24.827Z,5.73
2023-03-23T18:01:54.277Z,6.90
2023-03-23T18:04:30.192Z,6.87
2023-03-23T18:07:06.823Z,5.90
2023-03-23T18:09:45.283Z,8.20
2023-03-23T18:12:26.889Z,7.10
2023-03-23T18:15:05.145Z,8.30
2023-03-23T18:17:33.873Z,6.70
2023-03-23T18:20:09.764Z,6.70
2023-03-23T18:22:45.083Z,6.63
2023-03-23T18:25:15.897Z,8.37
2023-03-23T18:27:51.018Z,7.43
2023-03-23T18:30:20.843Z,6.53
2023-03-23T18:32:53.941Z,8.33
2023-03-23T18:35:28.877Z,9.20
2023-03-23T18:37:57.423Z,6.80
2023-03-23T18:40:34.153Z,6.63
2023-03-23T18:43:08.905Z,7.80
2023-03-23T18:45:39.191Z,8.70
2023-03-23T18:48:15.870Z,7.00
2023-03-23T18:50:55.892Z,8.73
2023-03-23T18:53:25.111Z,9.00
2023-03-23T18:56:01.887Z,7.40
2023-03-23T18:58:36.889Z,6.53
2023-03-23T19:01:07.416Z,6.97
2023-03-23T19:03:42.994Z,7.13
2023-03-23T19:06:23.852Z,8.43
2023-03-23T19:08:59.766Z,6.53
2023-03-23T19:11:36.121Z,6.37
2023-03-23T19:14:11.928Z,7.77
2023-03-23T19:16:41.440Z,7.67
2023-03-23T19:19:16.878Z,5.60
2023-03-23T19:21:53.419Z,7.93
2023-03-23T19:24:23.022Z,5.90
2023-03-23T19:26:59.933Z,5.43
2023-03-23T19:29:28.491Z,8.03
2023-03-23T19:32:07.251Z,5.30
2023-03-23T19:34:42.818Z,5.33
2023-03-23T19:37:12.705Z,6.60
2023-03-23T19:39:48.220Z,6.70
2023-03-23T19:42:20.482Z,5.33
2023-03-23T19:44:57.363Z,6.20
2023-03-23T19:47:25.990Z,5.57
2023-03-23T19:50:02.933Z,5.63
2023-03-23T19:52:31.562Z,6.20
2023-03-23T19:55:06.919Z,3.93
2023-03-23T19:57:37.334Z,5.00
2023-03-23T20:00:13.913Z,5.97
2023-03-23T20:02:48.959Z,8.73
2023-03-23T20:05:17.838Z,4.63
2023-03-23T20:07:52.883Z,4.37
2023-03-23T20:10:42.262Z,3.43
2023-03-23T20:13:14.070Z,4.80
2023-03-23T20:15:49.127Z,5.33
2023-03-23T20:18:18.849Z,6.67
2023-03-23T20:20:55.022Z,6.50
2023-03-23T20:23:31.267Z,6.30
2023-03-23T20:26:00.838Z,4.13
2023-03-23T20:28:38.174Z,3.37
2023-03-23T20:31:19.971Z,4.33
2023-03-23T20:34:01.172Z,3.77
2023-03-23T20:36:41.192Z,5.00
2023-03-23T20:39:11.943Z,5.10
2023-03-23T20:41:47.969Z,6.27
2023-03-23T20:44:18.963Z,4.90
2023-03-23T20:46:56.057Z,3.40
2023-03-23T20:49:34.279Z,3.63
2023-03-23T20:52:03.319Z,3.67
2023-03-23T20:54:38.980Z,5.40
2023-03-23T20:57:15.041Z,5.87
2023-03-23T20:59:45.344Z,4.93
2023-03-23T21:02:23.072Z,4.10
2023-03-23T21:04:59.945Z,5.87
2023-03-23T21:07:28.552Z,5.67
2023-03-23T21:10:11.948Z,5.60
2023-03-23T21:12:47.484Z,5.07
2023-03-23T21:15:24.047Z,5.37
2023-03-23T21:17:59.103Z,5.10
2023-03-23T21:20:28.033Z,6.13
2023-03-23T21:23:02.987Z,5.33
2023-03-23T21:25:38.040Z,4.03
2023-03-23T21:28:09.074Z,4.73
2023-03-23T21:30:48.209Z,5.07
2023-03-23T21:33:17.512Z,4.30
2023-03-23T21:35:45.970Z,4.53
2023-03-23T21:38:21.933Z,6.03
2023-03-23T21:40:50.947Z,4.30
2023-03-23T21:43:20.477Z,6.77
2023-03-23T21:45:57.029Z,4.40
2023-03-23T21:48:27.285Z,6.23
2023-03-23T21:51:03.252Z,5.40
2023-03-23T21:53:41.009Z,3.57
2023-03-23T21:56:11.784Z,4.53
2023-03-23T21:58:47.009Z,3.97
2023-03-23T22:01:24.048Z,4.63
2023-03-23T22:03:53.322Z,5.17
2023-03-23T22:06:33.090Z,5.00
2023-03-23T22:09:09.030Z,4.87
2023-03-23T22:11:44.955Z,5.67
2023-03-23T22:14:21.039Z,5.33
2023-03-23T22:16:59.351Z,4.83
2023-03-23T22:19:28.130Z,3.97
2023-03-23T22:22:03.062Z,4.03
2023-03-23T22:24:39.018Z,4.37
2023-03-23T22:27:07.866Z,4.00
2023-03-23T22:29:43.266Z,3.80
2023-03-23T22:32:20.066Z,3.70
2023-03-23T22:34:49.477Z,2.37
2023-03-23T22:37:25.336Z,3.13
2023-03-23T22:39:54.414Z,3.70
2023-03-23T22:42:23.475Z,2.53
2023-03-23T22:44:59.470Z,4.60
2023-03-23T22:47:29.558Z,4.97
2023-03-23T22:50:05.397Z,4.40
2023-03-23T22:52:43.065Z,2.63
2023-03-23T22:55:11.392Z,4.60
2023-03-23T22:57:47.110Z,5.07
2023-03-23T23:00:22.102Z,4.63
2023-03-23T23:02:52.285Z,3.90
2023-03-23T23:05:27.441Z,2.43
2023-03-23T23:07:56.069Z,2.87
2023-03-23T23:10:38.103Z,3.63
2023-03-23T23:13:13.133Z,2.97
2023-03-23T23:15:44.172Z,2.53
2023-03-23T23:18:21.084Z,3.13
2023-03-23T23:20:51.161Z,2.57
2023-03-23T23:23:26.085Z,4.13
2023-03-23T23:26:01.146Z,3.23
2023-03-23T23:28:30.440Z,3.67
2023-03-23T23:31:06.249Z,4.30
2023-03-23T23:33:36.500Z,4.30
2023-03-23T23:36:12.089Z,2.50
2023-03-23T23:38:40.736Z,2.50
2023-03-23T23:41:17.217Z,3.33
2023-03-23T23:43:52.304Z,2.57
2023-03-23T23:46:21.065Z,2.30
2023-03-23T23:48:58.197Z,3.40
2023-03-23T23:51:34.154Z,4.17
2023-03-23T23:54:02.729Z,2.93
2023-03-23T23:56:38.508Z,2.50
2023-03-23T23:59:14.113Z,2.63
